Bodega Marine Reserve, California Weather observations

Data are for 10 minute period ending at time listed.
 Day   Time   Solar   Ave.   Ave.  Ave.  Vector  Max.   Baro.   Total    
  of    of     Rad.   Air    Rel.  Wind   Wind   Wind  Press.  Precip.   
Year   Day            Temp.  Hum.  Speed  Dir.   Gust                    
2015   (PST)  Kw/m2    F      %     mph   deg.    mph    mb.     in.     
-------------------------------------------------------------------------
 187   11:10   0.88   65.0    68    8.8   281    11.9   1016.9    0.00 
 187   11:20   0.89   65.1    68    9.3   282    12.5   1016.9    0.00 
 187   11:30   0.89   65.8    68    9.0   279    12.2   1016.9    0.00 
 187   11:40   0.89   65.1    68   10.2   280    12.5   1016.9    0.00 
 187   11:50   0.89   65.4    68    9.3   283    13.2   1016.9    0.00 
 187   12:00   0.92   65.8    66    9.7   281    12.7   1016.9    0.00 
 187   12:10   0.93   65.9    67    9.4   280    13.1   1016.6    0.00 
 187   12:20   0.66   65.4    68    9.0   278    11.7   1016.6    0.00 
 187   12:30   0.47   64.6    69    8.6   286    12.4   1016.6    0.00 
 187   12:40   0.64   64.3    70    9.2   279    12.2   1016.6    0.00 
 187   12:50   0.90   65.9    67    9.6   282    12.6   1016.6    0.00 
 187   13:00   0.90   66.3    66   10.7   280    14.1   1016.6    0.00 
 187   13:10   0.90   66.1    66    9.9   282    13.4   1016.6    0.00 
 187   13:20   0.88   65.9    67    9.7   284    12.9   1016.6    0.00 
 187   13:30   0.88   66.2    66    9.9   288    13.2   1016.3    0.00 
 187   13:40   0.84   66.0    67    9.6   287    12.3   1016.3    0.00 
 187   13:50   0.82   66.7    66    9.8   282    14.1   1016.3    0.00 
 187   14:00   0.68   66.7    66   10.9   281    14.0   1016.3    0.00 
 187   14:10   0.61   66.7    66   10.3   287    14.1   1016.3    0.00 
 187   14:20   0.69   67.0    66    9.8   286    13.5   1015.9    0.00 
 187   14:30   0.38   66.7    67   10.1   284    13.8   1015.9    0.00 
 187   14:40   0.05   66.5    67   11.2   282    14.5   1015.6    0.00 
 187   14:50   0.23   66.8    67   10.3   289    14.0   1015.6    0.00 
 187   15:00   0.17   66.9    66   10.5   287    14.0   1015.6    0.00 
 187   15:10   0.62   66.0    67   11.6   293    15.0   1015.2    0.00 
 187   15:20   0.61   66.2    67   11.2   289    15.6   1015.2    0.00 
 187   15:30   0.68   65.6    68   11.4   292    14.8   1015.2    0.00 
 187   15:40   0.42   65.6    68   11.3   289    16.3   1014.9    0.00 
 187   15:50   0.63   66.3    67   11.4   284    15.3   1014.6    0.00 
 187   16:00   0.62   66.4    68   10.9   288    14.9   1014.6    0.00 
 187   16:10   0.24   66.0    70   11.8   292    15.5   1014.6    0.00 
 187   16:20   0.33   65.1    72   10.6   298    14.9   1014.2    0.00 
 187   16:30   0.36   64.9    73   11.8   286    15.8   1014.2    0.00 
 187   16:40   0.10   62.9    76   12.5   282    16.7   1014.2    0.00 
 187   16:50   0.10   61.9    79   12.0   281    16.1   1014.2    0.00 
 187   17:00   0.34   62.6    79   12.9   283    16.8   1014.2    0.00 
 187   17:10   0.40   64.3    75   12.2   285    16.7   1014.2    0.00 
 187   17:20   0.36   64.3    75   13.1   288    17.0   1014.2    0.00 
 187   17:30   0.33   64.0    75   12.7   288    17.3   1014.2    0.00 
 187   17:40   0.28   63.8    76   13.2   289    17.2   1014.2    0.00 
 187   17:50   0.11   62.8    78   12.3   294    18.3   1014.2    0.00 
 187   18:00   0.19   62.5    79   12.4   294    16.4   1014.2    0.00 
 187   18:10   0.21   63.1    79   12.1   291    16.2   1014.2    0.00 
 187   18:20   0.17   63.1    79   11.9   293    16.1   1014.2    0.00 
 187   18:30   0.14   62.8    80   12.0   290    16.3   1014.2    0.00 
 187   18:40   0.13   62.4    81   11.7   295    17.5   1014.2    0.00 
 187   18:50   0.10   62.0    82   12.2   296    16.2   1014.2    0.00 
 187   19:00   0.07   61.6    84   12.1   293    17.0   1014.2    0.00 
 187   19:10   0.05   61.3    85   11.3   291    17.1   1014.6    0.00 
 187   19:20   0.03   60.9    86   11.5   293    15.9   1014.6    0.00 
 187   19:30   0.02   60.5    87   11.9   294    17.2   1014.6    0.00 
 187   19:40   0.00   60.1    87   12.1   300    17.0   1014.2    0.00 
 187   19:50   0.00   59.8    88   12.0   303    16.1   1014.2    0.00 
 187   20:00   0.00   59.7    88   11.3   302    15.3   1014.2    0.00 
 187   20:10   0.00   59.6    88   11.5   301    16.5   1014.2    0.00 
 187   20:20   0.00   59.5    88   11.3   302    15.9   1014.2    0.00 
 187   20:30   0.00   59.4    87   11.2   300    15.5   1014.2    0.00 
 187   20:40   0.00   59.4    87   11.0   296    14.8   1014.2    0.00 
 187   20:50   0.00   59.5    87   11.7   296    15.5   1014.6    0.00 
 187   21:00   0.00   59.5    88   10.7   294    15.2   1014.6    0.00 
 187   21:10   0.00   59.4    88    9.6   296    12.4   1014.9    0.00 
 187   21:20   0.00   59.2    89    9.2   298    12.2   1014.9    0.00 
 187   21:30   0.00   59.1    89    8.8   296    12.6   1014.9    0.00 
 187   21:40   0.00   59.1    89    8.3   298    12.1   1014.9    0.00 
 187   21:50   0.00   59.1    89    9.3   298    12.6   1014.9    0.00 
 187   22:00   0.00   59.0    89    9.2   299    12.8   1014.9    0.00 
 187   22:10   0.00   58.9    89    9.7   299    12.4   1014.9    0.00 
 187   22:20   0.00   58.7    89    9.4   298    14.3   1014.9    0.00 
 187   22:30   0.00   58.8    89    9.6   296    12.3   1014.6    0.00 
 187   22:40   0.00   58.8    89    9.2   296    13.0   1014.6    0.00 
 187   22:50   0.00   58.8    89   10.0   297    12.7   1014.6    0.00 
 187   23:00   0.00   58.9    89   10.7   294    14.2   1014.6    0.00 
 187   23:10   0.00   59.1    88   11.5   291    15.7   1014.6    0.00 
 187   23:20   0.00   59.1    88   11.5   296    15.5   1014.2    0.00 
 187   23:30   0.00   59.1    88   12.4   299    16.2   1014.2    0.00 
 187   23:40   0.00   58.9    87   12.6   302    17.8   1014.2    0.00 
 187   23:50   0.00   58.9    88   11.5   305    15.9   1014.2    0.00 
 188    0:00   0.00   59.0    88   11.1   309    14.5   1014.2    0.00 
 188    0:10   100.00  99999.0   99999  99999.0   99999   99999.0   99999.0   99999.00 
 188    0:20   100.00  99999.0   99999  99999.0   99999   99999.0   99999.0   99999.00 
 188    0:30   100.00  99999.0   99999  99999.0   99999   99999.0   99999.0   99999.00 
 188    0:40   100.00  99999.0   99999  99999.0   99999   99999.0   99999.0   99999.00 
 188    0:50   100.00  99999.0   99999  99999.0   99999   99999.0   99999.0   99999.00 
 188    1:00   100.00  99999.0   99999  99999.0   99999   99999.0   99999.0   99999.00 
 188    1:10   100.00  99999.0   99999  99999.0   99999   99999.0   99999.0   99999.00 
 188    1:20   0.00   58.7    89    9.2   290    12.1   1013.5    0.00 
 188    1:30   0.00   58.6    89    8.7   292    11.6   1013.5    0.00 
 188    1:40   0.00   58.5    89    8.4   292    11.5   1013.5    0.00 
 188    1:50   0.00   58.5    89    8.3   288    10.7   1013.2    0.00 
 188    2:00   0.00   58.6    90    8.3   291    11.1   1013.2    0.00 
 188    2:10   0.00   58.6    90    7.8   292    10.7   1013.2    0.00 
 188    2:20   0.00   58.7    90    7.4   290     9.6   1013.2    0.00 
 188    2:30   0.00   58.6    90    7.7   284     9.7   1013.2    0.00 
 188    2:40   0.00   58.6    90    7.3   283     9.7   1013.2    0.00 
 188    2:50   0.00   58.5    90    6.8   284     9.1   1013.2    0.00 
 188    3:00   0.00   58.4    91    6.0   285     7.7   1013.2    0.00 
 188    3:10   0.00   58.3    91    5.7   279     7.5   1013.2    0.00 
 188    3:20   0.00   58.1    91    4.4   274     6.5   1013.2    0.00 
 188    3:30   0.00   57.5    91    3.2   269     5.3   1013.2    0.00 
 188    3:40   0.00   56.9    91    4.1   274     5.6   1013.2    0.00 
 188    3:50   0.00   57.0    92    5.2   265     7.2   1013.2    0.00 
 188    4:00   0.00   57.6    92    6.6   258     9.0   1013.5    0.00 
 188    4:10   0.00   58.0    92    7.1   253     9.8   1013.5    0.00 
 188    4:20   0.00   58.4    92    7.2   248    10.4   1013.5    0.00 
 188    4:30   0.00   58.6    92    9.1   253    12.3   1013.5    0.00 
 188    4:40   0.00   58.9    92    8.1   256    11.1   1013.9    0.00 
 188    4:50   0.00   59.1    92    7.8   258    10.7   1013.9    0.00 
 188    5:00   0.00   59.2    92    7.7   263    10.4   1013.9    0.00 
 188    5:10   0.00   59.4    92    7.2   267    10.2   1013.9    0.00 
 188    5:20   0.01   59.5    91    7.0   274     9.9   1013.9    0.00 
 188    5:30   0.01   59.6    91    6.7   273    10.0   1014.2    0.00 
 188    5:40   0.03   59.8    90    6.7   272     9.2   1014.2    0.00 
 188    5:50   0.04   60.1    90    6.5   274     9.2   1014.2    0.00 
 188    6:00   0.06   60.2    89    7.4   275     9.6   1014.2    0.00 
 188    6:10   0.06   60.5    89    7.9   277    10.0   1014.2    0.00 
 188    6:20   0.07   60.7    88    5.6   282     8.5   1014.6    0.00 
 188    6:30   0.07   61.0    88    5.6   286     8.1   1014.6    0.00 
 188    6:40   0.07   61.1    88    5.7   303     7.2   1014.6    0.00 
 188    6:50   0.07   61.0    87    5.8   313     8.0   1014.6    0.00 
 188    7:00   0.08   61.0    87    6.2   297     8.8   1014.6    0.00 
 188    7:10   0.08   61.2    87    7.0   300     9.6   1014.6    0.00 
 188    7:20   0.08   61.1    87    6.5   304     8.0   1014.6    0.00 
 188    7:30   0.10   61.1    87    6.0   299     8.7   1014.6    0.00 
 188    7:40   0.15   61.6    86    5.6   286     8.2   1014.6    0.00 
 188    7:50   0.23   62.2    86    6.1   302     7.8   1014.6    0.00 
 188    8:00   0.23   62.4    85    6.0   310     8.1   1014.6    0.00 
 188    8:10   0.27   62.6    84    6.8   309     9.3   1014.6    0.00 
 188    8:20   0.32   63.1    83    7.2   312     9.8   1014.6    0.00 
 188    8:30   0.34   63.4    81    7.2   312     9.9   1014.6    0.00 
 188    8:40   0.35   64.4    79    5.9   295     9.7   1014.6    0.00 
 188    8:50   0.32   64.5    78    6.6   285     9.6   1014.6    0.00 
 188    9:00   0.37   63.9    80    6.7   296     9.3   1014.6    0.00 
 188    9:10   0.41   64.4    77    6.2   298     8.9   1014.6    0.00 
 188    9:20   0.51   64.9    75    7.8   278    10.2   1014.2    0.00 
 188    9:30   0.51   65.0    75    7.6   277    10.2   1014.2    0.00 
 188    9:40   0.58   65.1    74    8.0   279    10.7   1014.2    0.00 
 188    9:50   0.53   64.9    76    7.3   277    10.1   1014.2    0.00 
 188   10:00   0.59   65.0    76    6.9   274     9.9   1014.2    0.00 
 188   10:10   0.77   66.1    74    7.0   281     9.9   1014.2    0.00 
 188   10:20   0.80   66.5    74    8.1   278    11.4   1014.2    0.00 
 188   10:30   0.88   67.3    72    9.3   272    12.4   1014.2    0.00 
 188   10:40   0.86   67.6    71    8.9   274    12.1   1014.2    0.00 
 188   10:50   0.90   68.2    70    8.4   280    11.8   1014.2    0.00 
 188   11:00   0.93   68.5    68    9.7   272    12.7   1014.2    0.00 

Return to Bodega Marine Reserve graphs page.


Western Regional Climate Center,wrcc@dri.edu